메인 페이지
METAR-TAF:

METAR-TAF

공항 :

상파울루 콩고냐스 공항

상파울루, 상파울루, 브라질

위도: 23-37S, 경도: 046-39W, 고도: 803m

현재 날씨관측

예보는 40분 전, 23:00시(UTC)에 발표되었습니다.
6kt
온도 17°C
습도 88%
기압 1019 hPa
시정: 7000m
고도 700ft 상공 구름 보통

METAR: SBSP 012300Z 18006KT 7000 SCT007 17/15 Q1019

시각: 20:40 (23:40 UTC)

예보

예보는 1 시간 40분 전, 22:00시(UTC)에 발표되었습니다.
예보 대상 시간: 02일 00시부터 02일 12시까지 (UTC)
8kt
시정 10km 이상
1500m 미만 상공 구름 및 적란운 없음
확률 30%
02일 00시부터 02일 04시까지 (UTC)
북동4kt
시정: 8000m
고도 800ft 상공 구름 많음
전환 중
02일 07시부터 02일 09시까지 (UTC)
고도 1000ft 상공 구름 보통
전환 중
02일 10시부터 02일 12시까지 (UTC)
북서5kt
시정 10km 이상
고도 1700ft 상공 구름 보통

TAF: SBSP 012200Z 0200/0212 19008KT CAVOK TX18/0200Z TN14/0209Z PROB30 0200/0204 04004KT 8000 BKN008 BECMG 0207/0209 SCT010 BECMG 0210/0212 31005KT 9999 SCT017 RMK PHH

4,000개 이상의 공항 관측 자료 및 예보 (METAR 및 TAF 보고).

지도상에서 검색 가능한 기상관측소가 노란 점과 빨간 점으로 표시되어 있습니다.

기상관측소 명을 보려면 표시 위로 마우스를 이동하세요.

날씨 관측과 예보를 보려면 클릭하세요.

지도 변경 : 확대하려면 엑스 표시가 있는 녹색 버튼, 축소하려면 빼기 표시가 있는 녹색 버튼, 다음 페이지의 지도를 보려면 녹색 화살표를 클릭하세요.


METAR-TAF: